createdAt,value
2023-01-27T00:02:22.246Z,15.84
2023-01-27T00:05:26.379Z,15.52
2023-01-27T00:08:30.298Z,16.16
2023-01-27T00:11:34.247Z,16.05
2023-01-27T00:14:38.124Z,15.62
2023-01-27T00:17:42.207Z,14.66
2023-01-27T00:20:46.396Z,14.67
2023-01-27T00:23:50.454Z,14.69
2023-01-27T00:26:54.283Z,14.66
2023-01-27T00:29:58.151Z,14.56
2023-01-27T00:33:02.233Z,13.46
2023-01-27T00:36:06.372Z,13.52
2023-01-27T00:39:10.570Z,13.16
2023-01-27T00:42:14.415Z,12.82
2023-01-27T00:45:18.433Z,12.60
2023-01-27T00:48:22.567Z,12.39
2023-01-27T00:51:26.744Z,13.97
2023-01-27T00:54:30.625Z,12.91
2023-01-27T00:57:34.576Z,12.71
2023-01-27T01:00:38.686Z,13.82
2023-01-27T01:03:42.835Z,13.80
2023-01-27T01:06:46.956Z,13.00
2023-01-27T01:09:50.798Z,13.66
2023-01-27T01:12:54.751Z,13.58
2023-01-27T01:15:58.843Z,14.21
2023-01-27T01:19:02.716Z,13.76
2023-01-27T01:22:06.535Z,14.75
2023-01-27T01:25:10.602Z,13.98
2023-01-27T01:28:14.775Z,15.00
2023-01-27T01:31:19.013Z,15.47
2023-01-27T01:34:22.805Z,15.70
2023-01-27T01:37:26.775Z,15.64
2023-01-27T01:40:30.634Z,15.15
2023-01-27T01:43:34.711Z,15.98
2023-01-27T01:46:38.790Z,16.50
2023-01-27T01:49:42.665Z,16.76
2023-01-27T01:52:46.754Z,16.40
2023-01-27T01:55:52.389Z,16.52
2023-01-27T01:58:56.624Z,17.22
2023-01-27T02:02:00.939Z,16.07
2023-01-27T02:05:04.889Z,16.63
2023-01-27T02:08:08.744Z,15.61
2023-01-27T02:11:12.696Z,16.73
2023-01-27T02:14:16.552Z,15.80
2023-01-27T02:17:20.633Z,15.51
2023-01-27T02:20:24.485Z,16.07
2023-01-27T02:23:28.468Z,16.39
2023-01-27T02:26:32.653Z,16.68
2023-01-27T02:29:36.662Z,16.01
2023-01-27T02:32:40.572Z,16.09
2023-01-27T02:35:44.465Z,16.08
2023-01-27T02:38:48.461Z,16.05
2023-01-27T02:41:52.566Z,16.09
2023-01-27T02:44:56.374Z,16.10
2023-01-27T02:48:00.357Z,16.21
2023-01-27T02:51:04.594Z,16.27
2023-01-27T02:54:08.438Z,16.23
2023-01-27T02:57:12.500Z,16.01
2023-01-27T03:00:16.327Z,16.97
2023-01-27T03:03:20.364Z,15.99
2023-01-27T03:06:24.531Z,16.87
2023-01-27T03:09:30.785Z,16.62
2023-01-27T03:12:34.783Z,16.59
2023-01-27T03:15:38.571Z,17.25
2023-01-27T03:18:42.531Z,16.25
2023-01-27T03:21:46.618Z,17.12
2023-01-27T03:24:50.727Z,17.22
2023-01-27T03:27:54.711Z,16.73
2023-01-27T03:30:58.765Z,16.90
2023-01-27T03:34:02.670Z,16.76
2023-01-27T03:37:06.644Z,16.99
2023-01-27T03:40:10.859Z,17.08
2023-01-27T03:43:14.663Z,16.57
2023-01-27T03:46:18.799Z,17.04
2023-01-27T03:49:22.777Z,16.60
2023-01-27T03:52:26.862Z,16.79
2023-01-27T03:55:30.797Z,16.96
2023-01-27T03:58:34.716Z,17.13
2023-01-27T04:01:38.743Z,17.63
2023-01-27T04:04:42.855Z,17.01
2023-01-27T04:07:46.876Z,16.70
2023-01-27T04:10:50.906Z,16.71
2023-01-27T04:13:54.755Z,17.66
2023-01-27T04:16:58.747Z,16.55
2023-01-27T04:20:02.838Z,17.03
2023-01-27T04:23:06.647Z,16.80
2023-01-27T04:26:10.532Z,17.34
2023-01-27T04:29:14.489Z,17.45
2023-01-27T04:32:18.730Z,16.47
2023-01-27T04:35:25.372Z,17.18
2023-01-27T04:38:31.808Z,17.78
2023-01-27T04:41:35.868Z,16.91
2023-01-27T04:44:39.659Z,16.83
2023-01-27T04:47:43.709Z,17.00
2023-01-27T04:50:47.682Z,17.91
2023-01-27T04:53:51.709Z,18.34
2023-01-27T04:56:55.570Z,17.92
2023-01-27T04:59:59.414Z,18.61
2023-01-27T05:03:03.419Z,18.80
2023-01-27T05:06:07.482Z,18.28
2023-01-27T05:09:11.406Z,18.37
2023-01-27T05:12:16.739Z,18.35
2023-01-27T05:15:20.788Z,18.47
2023-01-27T05:18:24.965Z,17.69
2023-01-27T05:21:29.106Z,19.15
2023-01-27T05:24:33.095Z,19.10
2023-01-27T05:27:37.221Z,19.30
2023-01-27T05:30:41.180Z,19.47
2023-01-27T05:33:45.454Z,19.48
2023-01-27T05:36:49.263Z,19.15
2023-01-27T05:39:52.985Z,19.65
2023-01-27T05:42:57.105Z,19.74
2023-01-27T05:46:01.128Z,19.07
2023-01-27T05:49:05.095Z,20.69
2023-01-27T05:52:09.011Z,20.16
2023-01-27T05:55:13.298Z,20.00
2023-01-27T05:58:17.459Z,19.16
2023-01-27T06:01:21.719Z,20.48
2023-01-27T06:04:25.695Z,20.37
2023-01-27T06:07:29.589Z,19.83
2023-01-27T06:10:33.647Z,19.97
2023-01-27T06:13:37.845Z,20.34
2023-01-27T06:16:41.966Z,20.42
2023-01-27T06:19:46.008Z,20.51
2023-01-27T06:22:49.922Z,20.40
2023-01-27T06:25:53.834Z,20.29
2023-01-27T06:28:57.863Z,21.27
2023-01-27T06:32:01.954Z,21.83
2023-01-27T06:35:05.893Z,21.47
2023-01-27T06:38:12.291Z,19.66
2023-01-27T06:41:16.486Z,20.92
2023-01-27T06:44:20.506Z,21.20
2023-01-27T06:47:24.555Z,21.73
2023-01-27T06:50:28.467Z,21.06
2023-01-27T06:53:32.262Z,21.81
2023-01-27T06:56:36.403Z,20.68
2023-01-27T06:59:40.639Z,21.36
2023-01-27T07:02:44.893Z,20.84
2023-01-27T07:05:48.794Z,21.65
2023-01-27T07:08:54.754Z,21.25
2023-01-27T07:11:59.573Z,21.48
2023-01-27T07:15:03.744Z,21.78
2023-01-27T07:18:07.976Z,20.66
2023-01-27T07:21:11.700Z,21.26
2023-01-27T07:24:15.818Z,21.43
2023-01-27T07:27:23.882Z,20.83
2023-01-27T07:30:28.745Z,21.01
2023-01-27T07:33:32.679Z,20.92
2023-01-27T07:36:36.700Z,20.68
2023-01-27T07:39:40.734Z,21.25
2023-01-27T07:42:45.004Z,21.53
2023-01-27T07:45:49.273Z,21.25
2023-01-27T07:48:53.063Z,21.67
2023-01-27T07:51:57.122Z,21.15
2023-01-27T07:55:01.004Z,21.24
2023-01-27T07:58:05.057Z,20.82
2023-01-27T08:01:09.467Z,20.14
2023-01-27T08:04:13.347Z,20.57
2023-01-27T08:07:17.359Z,20.38
2023-01-27T08:10:21.573Z,20.85
2023-01-27T08:13:25.531Z,20.46
2023-01-27T08:16:29.730Z,20.99
2023-01-27T08:19:33.855Z,20.01
2023-01-27T08:22:37.863Z,20.45
2023-01-27T08:25:42.073Z,20.61
2023-01-27T08:28:46.417Z,20.05
2023-01-27T08:31:50.436Z,20.31
2023-01-27T08:34:54.551Z,20.02
2023-01-27T08:37:58.155Z,19.73
2023-01-27T08:41:02.085Z,20.67
2023-01-27T08:44:06.200Z,19.89
2023-01-27T08:47:10.407Z,19.85
2023-01-27T08:50:14.659Z,19.30
2023-01-27T08:53:18.981Z,19.82
2023-01-27T08:56:23.151Z,20.14
2023-01-27T08:59:27.403Z,20.11
2023-01-27T09:02:31.010Z,20.20
2023-01-27T09:05:34.857Z,19.18
2023-01-27T09:08:38.900Z,19.79
2023-01-27T09:11:46.097Z,20.15
2023-01-27T09:14:50.382Z,19.98
2023-01-27T09:17:54.319Z,19.31
2023-01-27T09:20:58.507Z,19.63
2023-01-27T09:24:02.574Z,19.50
2023-01-27T09:27:06.665Z,18.91
2023-01-27T09:30:11.012Z,19.07
2023-01-27T09:33:18.121Z,19.40
2023-01-27T09:36:22.024Z,19.06
2023-01-27T09:39:26.178Z,18.52
2023-01-27T09:42:30.314Z,18.18
2023-01-27T09:45:34.222Z,17.94
2023-01-27T09:48:38.366Z,18.08
2023-01-27T09:51:42.320Z,18.66
2023-01-27T09:54:46.339Z,17.92
2023-01-27T09:57:50.405Z,18.17
2023-01-27T10:00:54.599Z,17.51
2023-01-27T10:03:58.339Z,18.74
2023-01-27T10:07:02.221Z,18.29
2023-01-27T10:10:06.283Z,18.49
2023-01-27T10:13:10.631Z,18.49
2023-01-27T10:16:14.813Z,17.99
2023-01-27T10:19:18.821Z,18.63
2023-01-27T10:22:22.983Z,18.17
2023-01-27T10:25:27.077Z,18.77
2023-01-27T10:28:31.447Z,17.95
2023-01-27T10:31:35.651Z,17.39
2023-01-27T10:34:39.480Z,18.05
2023-01-27T10:37:43.559Z,18.31
2023-01-27T10:40:47.957Z,17.80
2023-01-27T10:43:52.046Z,18.44
2023-01-27T10:46:56.092Z,17.83
2023-01-27T10:49:59.916Z,18.59
2023-01-27T10:53:03.979Z,18.27
2023-01-27T10:56:07.955Z,18.27
2023-01-27T10:59:11.987Z,18.18
2023-01-27T11:02:15.945Z,17.89
2023-01-27T11:05:20.956Z,17.71
2023-01-27T11:08:25.182Z,18.46
2023-01-27T11:11:29.410Z,18.39
2023-01-27T11:14:33.224Z,18.05
2023-01-27T11:17:36.995Z,18.50
2023-01-27T11:20:40.917Z,18.27
2023-01-27T11:23:44.994Z,17.72
2023-01-27T11:26:49.164Z,18.04
2023-01-27T11:29:53.341Z,17.64
2023-01-27T11:32:57.295Z,18.10
2023-01-27T11:36:01.388Z,18.78
2023-01-27T11:39:05.606Z,17.56
2023-01-27T11:42:09.723Z,18.01
2023-01-27T11:45:13.679Z,17.37
2023-01-27T11:48:17.651Z,17.38
2023-01-27T11:51:21.651Z,16.71
2023-01-27T11:54:25.607Z,15.53
2023-01-27T11:57:29.336Z,15.69
2023-01-27T12:00:32.974Z,15.71
2023-01-27T12:03:37.163Z,16.45
2023-01-27T12:06:42.115Z,15.80
2023-01-27T12:09:46.090Z,15.55
2023-01-27T12:12:50.049Z,15.78
2023-01-27T12:15:54.346Z,15.71
2023-01-27T12:18:58.271Z,15.80
2023-01-27T12:22:02.364Z,15.39
2023-01-27T12:25:06.588Z,15.37
2023-01-27T12:28:10.359Z,15.61
2023-01-27T12:31:14.260Z,14.93
2023-01-27T12:34:18.500Z,14.86
2023-01-27T12:37:22.824Z,15.36
2023-01-27T12:40:26.778Z,15.35
2023-01-27T12:43:30.641Z,14.67
2023-01-27T12:46:35.087Z,15.12
2023-01-27T12:49:39.137Z,15.28
2023-01-27T12:52:43.271Z,14.37
2023-01-27T12:55:47.571Z,14.81
2023-01-27T12:58:52.362Z,13.93
2023-01-27T13:01:56.451Z,14.64
2023-01-27T13:05:00.649Z,14.84
2023-01-27T13:08:04.708Z,13.83
2023-01-27T13:11:08.443Z,14.45
2023-01-27T13:14:12.329Z,14.06
2023-01-27T13:17:16.807Z,13.22
2023-01-27T13:20:20.555Z,13.60
2023-01-27T13:23:24.563Z,14.09
2023-01-27T13:26:28.852Z,13.73
2023-01-27T13:29:32.764Z,13.29
2023-01-27T13:32:36.982Z,13.43
2023-01-27T13:35:41.500Z,13.80
2023-01-27T13:38:45.306Z,13.55
2023-01-27T13:41:49.262Z,13.31
2023-01-27T13:44:53.163Z,13.24
2023-01-27T13:47:57.358Z,13.55
2023-01-27T13:51:01.515Z,13.33
2023-01-27T13:54:05.292Z,13.19
2023-01-27T13:57:09.264Z,13.50
2023-01-27T14:00:13.464Z,13.66
2023-01-27T14:03:20.707Z,14.04
2023-01-27T14:06:24.622Z,14.26
2023-01-27T14:09:28.651Z,14.65
2023-01-27T14:12:32.640Z,14.76
2023-01-27T14:15:37.024Z,14.43
2023-01-27T14:18:40.860Z,14.36
2023-01-27T14:21:49.477Z,14.17
2023-01-27T14:24:54.907Z,14.25
2023-01-27T14:27:58.414Z,14.00
2023-01-27T14:31:02.590Z,13.88
2023-01-27T14:34:06.953Z,14.54
2023-01-27T14:37:10.849Z,14.20
2023-01-27T14:40:14.906Z,13.61
2023-01-27T14:43:19.158Z,14.00
2023-01-27T14:46:23.265Z,13.74
2023-01-27T14:49:27.089Z,14.02
2023-01-27T14:52:31.106Z,13.10
2023-01-27T14:55:34.867Z,13.21
2023-01-27T14:58:39.130Z,12.95
2023-01-27T15:01:42.959Z,12.60
2023-01-27T15:04:46.819Z,13.45
2023-01-27T15:07:50.543Z,12.91
2023-01-27T15:10:54.275Z,12.67
2023-01-27T15:13:58.222Z,12.59
2023-01-27T15:17:02.108Z,12.34
2023-01-27T15:20:07.380Z,11.96
2023-01-27T15:23:11.517Z,12.25
2023-01-27T15:26:15.379Z,12.34
2023-01-27T15:29:19.399Z,12.57
2023-01-27T15:32:23.540Z,12.40
2023-01-27T15:35:27.748Z,12.18
2023-01-27T15:38:31.734Z,11.87
2023-01-27T15:41:36.104Z,12.17
2023-01-27T15:44:40.246Z,12.12
2023-01-27T15:47:44.491Z,11.54
2023-01-27T15:50:48.518Z,11.16
2023-01-27T15:53:52.459Z,11.07
2023-01-27T15:56:56.260Z,11.54
2023-01-27T16:00:00.743Z,10.72
2023-01-27T16:03:07.931Z,10.97
2023-01-27T16:06:11.927Z,11.22
2023-01-27T16:09:15.754Z,11.57
2023-01-27T16:12:20.217Z,13.08
2023-01-27T16:15:24.143Z,12.38
2023-01-27T16:18:28.317Z,11.01
2023-01-27T16:21:32.057Z,11.22
2023-01-27T16:24:36.031Z,11.27
2023-01-27T16:27:39.972Z,10.83
2023-01-27T16:30:43.776Z,10.86
2023-01-27T16:33:47.695Z,11.16
2023-01-27T16:36:51.620Z,11.22
2023-01-27T16:39:55.401Z,11.53
2023-01-27T16:42:59.675Z,11.64
2023-01-27T16:46:03.927Z,11.34
2023-01-27T16:49:07.637Z,11.93
2023-01-27T16:52:11.714Z,12.36
2023-01-27T16:55:16.343Z,12.08
2023-01-27T16:58:20.559Z,11.69
2023-01-27T17:01:24.763Z,11.56
2023-01-27T17:04:28.619Z,11.59
2023-01-27T17:07:32.803Z,11.51
2023-01-27T17:10:36.932Z,11.38
2023-01-27T17:13:40.828Z,11.77
2023-01-27T17:16:45.011Z,11.52
2023-01-27T17:19:48.661Z,11.93
2023-01-27T17:22:52.657Z,12.12
2023-01-27T17:25:56.866Z,11.73
2023-01-27T17:29:00.675Z,13.48
2023-01-27T17:32:05.863Z,11.46
2023-01-27T17:35:10.436Z,12.19
2023-01-27T17:38:15.756Z,11.90
2023-01-27T17:41:19.772Z,11.65
2023-01-27T17:44:23.702Z,11.92
2023-01-27T17:47:27.748Z,11.49
2023-01-27T17:50:31.719Z,11.44
2023-01-27T17:53:35.802Z,11.59
2023-01-27T17:56:39.934Z,11.25
2023-01-27T17:59:43.790Z,11.33
2023-01-27T18:02:48.043Z,11.42
2023-01-27T18:05:51.976Z,11.73
2023-01-27T18:08:55.987Z,11.22
2023-01-27T18:12:00.235Z,11.84
2023-01-27T18:15:04.009Z,11.12
2023-01-27T18:18:10.441Z,11.28
2023-01-27T18:21:15.626Z,11.23
2023-01-27T18:24:19.631Z,11.31
2023-01-27T18:27:23.684Z,11.39
2023-01-27T18:30:27.370Z,10.86
2023-01-27T18:33:31.266Z,11.55
2023-01-27T18:36:35.463Z,11.26
2023-01-27T18:39:39.583Z,11.15
2023-01-27T18:42:43.726Z,11.61
2023-01-27T18:45:47.684Z,12.06
2023-01-27T18:48:51.679Z,12.05
2023-01-27T18:51:55.887Z,12.23
2023-01-27T18:54:59.803Z,11.50
2023-01-27T18:58:03.765Z,11.73
2023-01-27T19:01:07.616Z,11.95
2023-01-27T19:04:11.662Z,11.70
2023-01-27T19:07:15.855Z,12.04
2023-01-27T19:10:20.084Z,11.71
2023-01-27T19:13:23.737Z,11.98
2023-01-27T19:16:27.685Z,12.09
2023-01-27T19:19:31.620Z,12.58
2023-01-27T19:22:35.887Z,12.75
2023-01-27T19:25:39.841Z,13.18
2023-01-27T19:28:43.809Z,12.93
2023-01-27T19:31:47.984Z,13.24
2023-01-27T19:34:52.069Z,13.95
2023-01-27T19:37:56.050Z,13.25
2023-01-27T19:41:00.133Z,13.38
2023-01-27T19:44:04.141Z,13.42
2023-01-27T19:47:08.176Z,13.16
2023-01-27T19:50:12.424Z,13.40
2023-01-27T19:53:16.501Z,12.98
2023-01-27T19:56:20.398Z,12.86
2023-01-27T19:59:24.511Z,14.37
2023-01-27T20:02:28.769Z,12.83
2023-01-27T20:05:35.422Z,13.65
2023-01-27T20:08:40.709Z,13.26
2023-01-27T20:11:44.695Z,13.42
2023-01-27T20:14:48.884Z,13.24
2023-01-27T20:17:52.832Z,12.37
2023-01-27T20:20:56.969Z,13.37
2023-01-27T20:24:01.039Z,13.78
2023-01-27T20:27:04.776Z,13.37
2023-01-27T20:30:08.902Z,12.95
2023-01-27T20:33:14.065Z,13.57
2023-01-27T20:36:17.661Z,13.69
2023-01-27T20:39:22.033Z,13.52
2023-01-27T20:42:29.173Z,13.22
2023-01-27T20:45:33.312Z,14.24
2023-01-27T20:48:37.431Z,14.14
2023-01-27T20:51:41.752Z,14.53
2023-01-27T20:54:45.880Z,15.51
2023-01-27T20:57:49.932Z,14.45
2023-01-27T21:00:53.670Z,19.26
2023-01-27T21:03:57.898Z,15.63
2023-01-27T21:07:01.900Z,15.24
2023-01-27T21:10:05.897Z,14.92
2023-01-27T21:13:09.944Z,17.76
2023-01-27T21:16:13.805Z,16.10
2023-01-27T21:19:17.729Z,16.45
2023-01-27T21:22:22.117Z,15.66
2023-01-27T21:25:26.088Z,15.88
2023-01-27T21:28:30.272Z,14.90
2023-01-27T21:31:34.265Z,15.07
2023-01-27T21:34:38.598Z,15.81
2023-01-27T21:37:42.724Z,15.96
2023-01-27T21:40:46.694Z,16.22
2023-01-27T21:43:50.869Z,15.35
2023-01-27T21:46:55.002Z,15.70
2023-01-27T21:49:59.257Z,18.33
2023-01-27T21:53:03.282Z,15.37
2023-01-27T21:56:09.164Z,15.43
2023-01-27T21:59:12.935Z,15.19
2023-01-27T22:02:17.016Z,15.25
2023-01-27T22:05:21.437Z,15.26
2023-01-27T22:08:25.614Z,14.35
2023-01-27T22:11:29.455Z,15.09
2023-01-27T22:14:33.269Z,15.73
2023-01-27T22:17:37.485Z,15.10
2023-01-27T22:20:41.686Z,15.21
2023-01-27T22:23:45.931Z,15.11
2023-01-27T22:26:50.577Z,15.26
2023-01-27T22:29:54.268Z,14.63
2023-01-27T22:32:59.524Z,14.92
2023-01-27T22:36:03.625Z,15.14
2023-01-27T22:39:07.877Z,15.40
2023-01-27T22:42:11.668Z,15.30
2023-01-27T22:45:16.042Z,14.98
2023-01-27T22:48:20.153Z,14.75
2023-01-27T22:51:24.311Z,14.40
2023-01-27T22:54:28.363Z,15.10
2023-01-27T22:57:32.193Z,14.42
2023-01-27T23:00:36.248Z,14.49
2023-01-27T23:03:40.124Z,14.66
2023-01-27T23:06:44.357Z,14.79
2023-01-27T23:09:48.101Z,14.08
2023-01-27T23:12:52.364Z,14.34
2023-01-27T23:15:56.485Z,13.73
2023-01-27T23:19:00.521Z,13.63
2023-01-27T23:22:04.924Z,13.82
2023-01-27T23:25:08.894Z,14.53
2023-01-27T23:28:12.938Z,14.10
2023-01-27T23:31:17.154Z,14.24
2023-01-27T23:34:21.595Z,13.87
2023-01-27T23:37:25.372Z,14.44
2023-01-27T23:40:29.112Z,14.50
2023-01-27T23:43:33.205Z,14.04
2023-01-27T23:46:37.317Z,14.25
2023-01-27T23:49:41.504Z,14.36
2023-01-27T23:52:45.476Z,14.64
2023-01-27T23:55:51.823Z,14.24
2023-01-27T23:58:55.933Z,14.38
